sensor_id;sensor_type;location;lat;lon;timestamp;temperature;humidity
21387;DHT22;10854;45.922;6.716;2023-02-18T00:00:12;2.20;99.90
21387;DHT22;10854;45.922;6.716;2023-02-18T00:02:45;2.10;99.90
21387;DHT22;10854;45.922;6.716;2023-02-18T00:05:25;2.00;99.90
21387;DHT22;10854;45.922;6.716;2023-02-18T00:07:57;2.00;99.90
21387;DHT22;10854;45.922;6.716;2023-02-18T00:10:28;2.10;99.90
21387;DHT22;10854;45.922;6.716;2023-02-18T00:12:57;2.20;99.90
21387;DHT22;10854;45.922;6.716;2023-02-18T00:15:28;2.40;99.90
21387;DHT22;10854;45.922;6.716;2023-02-18T00:17:56;2.50;99.90
21387;DHT22;10854;45.922;6.716;2023-02-18T00:20:26;2.50;99.90
21387;DHT22;10854;45.922;6.716;2023-02-18T00:22:55;2.50;99.90
21387;DHT22;10854;45.922;6.716;2023-02-18T00:25:33;2.50;99.90
21387;DHT22;10854;45.922;6.716;2023-02-18T00:28:02;2.40;99.90
21387;DHT22;10854;45.922;6.716;2023-02-18T00:30:41;2.40;99.90
21387;DHT22;10854;45.922;6.716;2023-02-18T00:33:09;2.40;99.90
21387;DHT22;10854;45.922;6.716;2023-02-18T00:35:39;2.40;99.90
21387;DHT22;10854;45.922;6.716;2023-02-18T00:38:11;2.30;99.90
21387;DHT22;10854;45.922;6.716;2023-02-18T00:40:40;2.30;99.90
21387;DHT22;10854;45.922;6.716;2023-02-18T00:43:09;2.20;99.90
21387;DHT22;10854;45.922;6.716;2023-02-18T00:45:44;2.20;99.90
21387;DHT22;10854;45.922;6.716;2023-02-18T00:48:26;2.10;99.90
21387;DHT22;10854;45.922;6.716;2023-02-18T00:51:10;2.00;99.90
21387;DHT22;10854;45.922;6.716;2023-02-18T00:53:41;2.00;99.90
21387;DHT22;10854;45.922;6.716;2023-02-18T00:56:10;1.90;99.90
21387;DHT22;10854;45.922;6.716;2023-02-18T00:58:38;1.90;99.90
21387;DHT22;10854;45.922;6.716;2023-02-18T01:01:08;2.00;99.90
21387;DHT22;10854;45.922;6.716;2023-02-18T01:03:39;2.10;99.90
21387;DHT22;10854;45.922;6.716;2023-02-18T01:06:09;2.40;99.90
21387;DHT22;10854;45.922;6.716;2023-02-18T01:08:39;2.60;99.90
21387;DHT22;10854;45.922;6.716;2023-02-18T01:11:10;2.70;99.90
21387;DHT22;10854;45.922;6.716;2023-02-18T01:13:39;2.80;99.90
21387;DHT22;10854;45.922;6.716;2023-02-18T01:16:09;2.90;99.90
21387;DHT22;10854;45.922;6.716;2023-02-18T01:18:38;2.80;99.90
21387;DHT22;10854;45.922;6.716;2023-02-18T01:21:08;2.80;99.90
21387;DHT22;10854;45.922;6.716;2023-02-18T01:23:39;2.70;99.90
21387;DHT22;10854;45.922;6.716;2023-02-18T01:26:09;2.60;99.90
21387;DHT22;10854;45.922;6.716;2023-02-18T01:28:39;2.50;99.90
21387;DHT22;10854;45.922;6.716;2023-02-18T01:31:10;2.40;99.90
21387;DHT22;10854;45.922;6.716;2023-02-18T01:33:40;2.30;99.90
21387;DHT22;10854;45.922;6.716;2023-02-18T01:36:09;2.20;99.90
21387;DHT22;10854;45.922;6.716;2023-02-18T01:38:38;2.10;99.90
21387;DHT22;10854;45.922;6.716;2023-02-18T01:41:07;2.10;99.90
21387;DHT22;10854;45.922;6.716;2023-02-18T01:43:40;2.00;99.90
21387;DHT22;10854;45.922;6.716;2023-02-18T01:46:17;1.90;99.90
21387;DHT22;10854;45.922;6.716;2023-02-18T01:49:04;1.80;99.90
21387;DHT22;10854;45.922;6.716;2023-02-18T01:51:58;1.70;99.90
21387;DHT22;10854;45.922;6.716;2023-02-18T01:54:32;1.60;99.90
21387;DHT22;10854;45.922;6.716;2023-02-18T01:57:05;1.50;99.90
21387;DHT22;10854;45.922;6.716;2023-02-18T01:59:51;1.50;99.90
21387;DHT22;10854;45.922;6.716;2023-02-18T02:02:24;1.40;99.90
21387;DHT22;10854;45.922;6.716;2023-02-18T02:04:54;1.30;99.90
21387;DHT22;10854;45.922;6.716;2023-02-18T02:07:36;1.30;99.90
21387;DHT22;10854;45.922;6.716;2023-02-18T02:10:06;1.20;99.90
21387;DHT22;10854;45.922;6.716;2023-02-18T02:13:00;1.10;99.90
21387;DHT22;10854;45.922;6.716;2023-02-18T02:15:55;1.10;99.90
21387;DHT22;10854;45.922;6.716;2023-02-18T02:27:05;0.90;99.90
21387;DHT22;10854;45.922;6.716;2023-02-18T02:33:14;0.90;99.90
21387;DHT22;10854;45.922;6.716;2023-02-18T02:36:05;0.80;99.90
21387;DHT22;10854;45.922;6.716;2023-02-18T02:39:03;0.90;99.90
21387;DHT22;10854;45.922;6.716;2023-02-18T02:42:04;1.00;99.90
21387;DHT22;10854;45.922;6.716;2023-02-18T02:44:48;1.00;99.90
21387;DHT22;10854;45.922;6.716;2023-02-18T02:47:59;1.10;99.90
21387;DHT22;10854;45.922;6.716;2023-02-18T02:50:52;1.00;99.90
21387;DHT22;10854;45.922;6.716;2023-02-18T02:53:25;0.90;99.90
21387;DHT22;10854;45.922;6.716;2023-02-18T02:55:54;0.80;99.90
21387;DHT22;10854;45.922;6.716;2023-02-18T02:58:23;0.70;99.90
21387;DHT22;10854;45.922;6.716;2023-02-18T03:01:08;0.70;99.90
21387;DHT22;10854;45.922;6.716;2023-02-18T03:04:21;0.60;99.90
21387;DHT22;10854;45.922;6.716;2023-02-18T03:07:33;0.60;99.90
21387;DHT22;10854;45.922;6.716;2023-02-18T03:10:24;0.40;99.90
21387;DHT22;10854;45.922;6.716;2023-02-18T03:16:22;0.40;99.90
21387;DHT22;10854;45.922;6.716;2023-02-18T03:19:13;0.30;99.90
21387;DHT22;10854;45.922;6.716;2023-02-18T03:21:56;0.30;99.90
21387;DHT22;10854;45.922;6.716;2023-02-18T03:24:35;0.30;99.90
21387;DHT22;10854;45.922;6.716;2023-02-18T03:27:11;0.30;99.90
21387;DHT22;10854;45.922;6.716;2023-02-18T03:29:43;0.30;99.90
21387;DHT22;10854;45.922;6.716;2023-02-18T03:32:16;0.30;99.90
21387;DHT22;10854;45.922;6.716;2023-02-18T03:34:56;0.30;99.90
21387;DHT22;10854;45.922;6.716;2023-02-18T03:37:30;0.30;99.90
21387;DHT22;10854;45.922;6.716;2023-02-18T03:40:00;0.30;99.90
21387;DHT22;10854;45.922;6.716;2023-02-18T03:42:29;0.30;99.90
21387;DHT22;10854;45.922;6.716;2023-02-18T03:44:58;0.20;99.90
21387;DHT22;10854;45.922;6.716;2023-02-18T03:47:27;0.20;99.90
21387;DHT22;10854;45.922;6.716;2023-02-18T03:49:55;0.20;99.90
21387;DHT22;10854;45.922;6.716;2023-02-18T03:52:24;0.30;99.90
21387;DHT22;10854;45.922;6.716;2023-02-18T03:54:52;0.20;99.90
21387;DHT22;10854;45.922;6.716;2023-02-18T03:57:21;0.20;99.90
21387;DHT22;10854;45.922;6.716;2023-02-18T03:59:49;0.20;99.90
21387;DHT22;10854;45.922;6.716;2023-02-18T04:02:18;0.10;99.90
21387;DHT22;10854;45.922;6.716;2023-02-18T04:04:46;0.10;99.90
21387;DHT22;10854;45.922;6.716;2023-02-18T04:07:15;0.10;99.90
21387;DHT22;10854;45.922;6.716;2023-02-18T04:09:45;0.00;99.90
21387;DHT22;10854;45.922;6.716;2023-02-18T04:12:16;0.00;99.90
21387;DHT22;10854;45.922;6.716;2023-02-18T04:14:44;0.00;99.90
21387;DHT22;10854;45.922;6.716;2023-02-18T04:17:14;0.00;99.90
21387;DHT22;10854;45.922;6.716;2023-02-18T04:19:42;0.00;99.90
21387;DHT22;10854;45.922;6.716;2023-02-18T04:22:11;0.00;99.90
21387;DHT22;10854;45.922;6.716;2023-02-18T04:24:39;0.00;99.90
21387;DHT22;10854;45.922;6.716;2023-02-18T04:27:08;-0.10;99.90
21387;DHT22;10854;45.922;6.716;2023-02-18T04:29:36;-0.10;99.90
21387;DHT22;10854;45.922;6.716;2023-02-18T04:32:05;-0.10;99.90
21387;DHT22;10854;45.922;6.716;2023-02-18T04:34:33;-0.10;99.90
21387;DHT22;10854;45.922;6.716;2023-02-18T04:37:03;-0.10;99.90
21387;DHT22;10854;45.922;6.716;2023-02-18T04:39:31;-0.10;99.90
21387;DHT22;10854;45.922;6.716;2023-02-18T04:42:00;-0.10;99.90
21387;DHT22;10854;45.922;6.716;2023-02-18T04:44:28;-0.10;99.90
21387;DHT22;10854;45.922;6.716;2023-02-18T04:46:57;-0.10;99.90
21387;DHT22;10854;45.922;6.716;2023-02-18T04:49:25;-0.10;99.90
21387;DHT22;10854;45.922;6.716;2023-02-18T04:51:54;-0.10;99.90
21387;DHT22;10854;45.922;6.716;2023-02-18T04:54:22;-0.10;99.90
21387;DHT22;10854;45.922;6.716;2023-02-18T04:56:51;-0.10;99.90
21387;DHT22;10854;45.922;6.716;2023-02-18T04:59:21;-0.10;99.90
21387;DHT22;10854;45.922;6.716;2023-02-18T05:01:49;-0.10;99.90
21387;DHT22;10854;45.922;6.716;2023-02-18T05:04:18;0.00;99.90
21387;DHT22;10854;45.922;6.716;2023-02-18T05:06:47;0.00;99.90
21387;DHT22;10854;45.922;6.716;2023-02-18T05:09:15;0.00;99.90
21387;DHT22;10854;45.922;6.716;2023-02-18T05:11:44;0.00;99.90
21387;DHT22;10854;45.922;6.716;2023-02-18T05:14:14;0.00;99.90
21387;DHT22;10854;45.922;6.716;2023-02-18T05:16:43;0.00;99.90
21387;DHT22;10854;45.922;6.716;2023-02-18T05:19:15;0.00;99.90
21387;DHT22;10854;45.922;6.716;2023-02-18T05:21:43;0.00;99.90
21387;DHT22;10854;45.922;6.716;2023-02-18T05:24:12;0.00;99.90
21387;DHT22;10854;45.922;6.716;2023-02-18T05:26:40;0.00;99.90
21387;DHT22;10854;45.922;6.716;2023-02-18T05:29:08;-0.10;99.90
21387;DHT22;10854;45.922;6.716;2023-02-18T05:31:37;-0.10;99.90
21387;DHT22;10854;45.922;6.716;2023-02-18T05:34:06;-0.20;99.90
21387;DHT22;10854;45.922;6.716;2023-02-18T05:36:34;-0.20;99.90
21387;DHT22;10854;45.922;6.716;2023-02-18T05:39:03;-0.10;99.90
21387;DHT22;10854;45.922;6.716;2023-02-18T05:41:31;-0.20;99.90
21387;DHT22;10854;45.922;6.716;2023-02-18T05:44:00;-0.20;99.90
21387;DHT22;10854;45.922;6.716;2023-02-18T05:46:47;-0.20;99.90
21387;DHT22;10854;45.922;6.716;2023-02-18T05:49:15;-0.30;99.90
21387;DHT22;10854;45.922;6.716;2023-02-18T05:51:44;-0.30;99.90
21387;DHT22;10854;45.922;6.716;2023-02-18T05:54:12;-0.30;99.90
21387;DHT22;10854;45.922;6.716;2023-02-18T05:56:41;-0.40;99.90
21387;DHT22;10854;45.922;6.716;2023-02-18T05:59:11;-0.40;99.90
21387;DHT22;10854;45.922;6.716;2023-02-18T06:01:40;-0.50;99.90
21387;DHT22;10854;45.922;6.716;2023-02-18T06:04:09;-0.50;99.90
21387;DHT22;10854;45.922;6.716;2023-02-18T06:06:39;-0.50;99.90
21387;DHT22;10854;45.922;6.716;2023-02-18T06:09:08;-0.50;99.90
21387;DHT22;10854;45.922;6.716;2023-02-18T06:11:37;-0.60;99.90
21387;DHT22;10854;45.922;6.716;2023-02-18T06:14:05;-0.60;99.90
21387;DHT22;10854;45.922;6.716;2023-02-18T06:16:34;-0.60;99.90
21387;DHT22;10854;45.922;6.716;2023-02-18T06:19:03;-0.60;99.90
21387;DHT22;10854;45.922;6.716;2023-02-18T06:21:32;-0.60;99.90
21387;DHT22;10854;45.922;6.716;2023-02-18T06:24:00;-0.60;99.90
21387;DHT22;10854;45.922;6.716;2023-02-18T06:26:29;-0.60;99.90
21387;DHT22;10854;45.922;6.716;2023-02-18T06:28:59;-0.60;99.90
21387;DHT22;10854;45.922;6.716;2023-02-18T06:31:29;-0.60;99.90
21387;DHT22;10854;45.922;6.716;2023-02-18T06:33:59;-0.70;99.90
21387;DHT22;10854;45.922;6.716;2023-02-18T06:36:28;-0.70;99.90
21387;DHT22;10854;45.922;6.716;2023-02-18T06:38:56;-0.70;99.90
21387;DHT22;10854;45.922;6.716;2023-02-18T06:41:26;-0.70;99.90
21387;DHT22;10854;45.922;6.716;2023-02-18T06:43:55;-0.70;99.90
21387;DHT22;10854;45.922;6.716;2023-02-18T06:46:23;-0.70;99.90
21387;DHT22;10854;45.922;6.716;2023-02-18T06:48:51;-0.60;99.90
21387;DHT22;10854;45.922;6.716;2023-02-18T06:51:20;-0.60;99.90
21387;DHT22;10854;45.922;6.716;2023-02-18T06:53:48;-0.50;99.90
21387;DHT22;10854;45.922;6.716;2023-02-18T06:56:17;-0.40;99.90
21387;DHT22;10854;45.922;6.716;2023-02-18T06:58:45;-0.40;99.90
21387;DHT22;10854;45.922;6.716;2023-02-18T07:01:15;-0.30;99.90
21387;DHT22;10854;45.922;6.716;2023-02-18T07:03:44;-0.30;99.90
21387;DHT22;10854;45.922;6.716;2023-02-18T07:06:14;-0.20;99.90
21387;DHT22;10854;45.922;6.716;2023-02-18T07:08:42;-0.20;99.90
21387;DHT22;10854;45.922;6.716;2023-02-18T07:11:11;-0.10;99.90
21387;DHT22;10854;45.922;6.716;2023-02-18T07:13:39;0.00;99.90
21387;DHT22;10854;45.922;6.716;2023-02-18T07:16:08;0.00;99.90
21387;DHT22;10854;45.922;6.716;2023-02-18T07:18:37;0.10;99.90
21387;DHT22;10854;45.922;6.716;2023-02-18T07:21:05;0.10;99.90
21387;DHT22;10854;45.922;6.716;2023-02-18T07:23:33;0.20;99.90
21387;DHT22;10854;45.922;6.716;2023-02-18T07:26:07;0.30;99.90
21387;DHT22;10854;45.922;6.716;2023-02-18T07:28:37;0.30;99.90
21387;DHT22;10854;45.922;6.716;2023-02-18T07:31:06;0.40;99.90
21387;DHT22;10854;45.922;6.716;2023-02-18T07:33:35;0.50;99.90
21387;DHT22;10854;45.922;6.716;2023-02-18T07:36:04;0.50;99.90
21387;DHT22;10854;45.922;6.716;2023-02-18T07:38:33;0.60;99.90
21387;DHT22;10854;45.922;6.716;2023-02-18T07:41:03;0.70;99.90
21387;DHT22;10854;45.922;6.716;2023-02-18T07:43:32;0.80;99.90
21387;DHT22;10854;45.922;6.716;2023-02-18T07:46:05;0.80;99.90
21387;DHT22;10854;45.922;6.716;2023-02-18T07:48:34;0.90;99.90
21387;DHT22;10854;45.922;6.716;2023-02-18T07:51:08;0.90;99.90
21387;DHT22;10854;45.922;6.716;2023-02-18T07:53:38;1.00;99.90
21387;DHT22;10854;45.922;6.716;2023-02-18T07:56:07;1.10;99.90
21387;DHT22;10854;45.922;6.716;2023-02-18T07:58:37;1.20;99.90
21387;DHT22;10854;45.922;6.716;2023-02-18T08:01:08;1.30;99.90
21387;DHT22;10854;45.922;6.716;2023-02-18T08:03:37;1.40;99.90
21387;DHT22;10854;45.922;6.716;2023-02-18T08:06:06;1.50;99.90
21387;DHT22;10854;45.922;6.716;2023-02-18T08:08:36;1.40;99.90
21387;DHT22;10854;45.922;6.716;2023-02-18T08:11:04;1.50;99.90
21387;DHT22;10854;45.922;6.716;2023-02-18T08:13:46;1.50;99.90
21387;DHT22;10854;45.922;6.716;2023-02-18T08:16:16;1.60;99.90
21387;DHT22;10854;45.922;6.716;2023-02-18T08:18:45;1.60;99.90
21387;DHT22;10854;45.922;6.716;2023-02-18T08:21:18;1.60;99.90
21387;DHT22;10854;45.922;6.716;2023-02-18T08:23:48;1.70;99.90
21387;DHT22;10854;45.922;6.716;2023-02-18T08:26:17;1.80;99.90
21387;DHT22;10854;45.922;6.716;2023-02-18T08:28:47;1.80;99.90
21387;DHT22;10854;45.922;6.716;2023-02-18T08:31:24;1.90;99.90
21387;DHT22;10854;45.922;6.716;2023-02-18T08:33:55;2.00;99.90
21387;DHT22;10854;45.922;6.716;2023-02-18T08:36:24;2.10;99.90
21387;DHT22;10854;45.922;6.716;2023-02-18T08:38:52;2.10;99.90
21387;DHT22;10854;45.922;6.716;2023-02-18T08:41:23;2.10;99.90
21387;DHT22;10854;45.922;6.716;2023-02-18T08:43:52;2.20;99.90
21387;DHT22;10854;45.922;6.716;2023-02-18T08:46:20;2.30;99.90
21387;DHT22;10854;45.922;6.716;2023-02-18T08:48:50;2.40;99.90
21387;DHT22;10854;45.922;6.716;2023-02-18T08:51:21;2.50;99.90
21387;DHT22;10854;45.922;6.716;2023-02-18T08:53:49;2.60;99.90
21387;DHT22;10854;45.922;6.716;2023-02-18T08:56:18;3.00;99.90
21387;DHT22;10854;45.922;6.716;2023-02-18T08:58:46;3.70;99.90
21387;DHT22;10854;45.922;6.716;2023-02-18T09:01:15;4.70;99.90
21387;DHT22;10854;45.922;6.716;2023-02-18T09:03:44;5.70;99.90
21387;DHT22;10854;45.922;6.716;2023-02-18T09:06:12;6.60;99.90
21387;DHT22;10854;45.922;6.716;2023-02-18T09:08:41;7.40;99.90
21387;DHT22;10854;45.922;6.716;2023-02-18T09:11:10;8.00;99.90
21387;DHT22;10854;45.922;6.716;2023-02-18T09:13:39;8.60;99.10
21387;DHT22;10854;45.922;6.716;2023-02-18T09:16:17;9.10;94.20
21387;DHT22;10854;45.922;6.716;2023-02-18T09:18:47;9.50;92.00
21387;DHT22;10854;45.922;6.716;2023-02-18T09:21:17;10.00;87.80
21387;DHT22;10854;45.922;6.716;2023-02-18T09:23:48;10.30;83.00
21387;DHT22;10854;45.922;6.716;2023-02-18T09:26:19;10.50;80.20
21387;DHT22;10854;45.922;6.716;2023-02-18T09:28:55;10.90;79.10
21387;DHT22;10854;45.922;6.716;2023-02-18T09:31:27;11.40;77.50
21387;DHT22;10854;45.922;6.716;2023-02-18T09:33:59;11.80;74.30
21387;DHT22;10854;45.922;6.716;2023-02-18T09:36:28;12.10;72.70
21387;DHT22;10854;45.922;6.716;2023-02-18T09:38:57;12.60;70.90
21387;DHT22;10854;45.922;6.716;2023-02-18T09:41:42;13.10;69.10
21387;DHT22;10854;45.922;6.716;2023-02-18T09:44:16;13.70;68.10
21387;DHT22;10854;45.922;6.716;2023-02-18T09:49:27;14.90;66.20
21387;DHT22;10854;45.922;6.716;2023-02-18T09:52:12;15.40;63.70
21387;DHT22;10854;45.922;6.716;2023-02-18T09:54:41;16.00;62.00
21387;DHT22;10854;45.922;6.716;2023-02-18T09:57:26;16.60;60.60
21387;DHT22;10854;45.922;6.716;2023-02-18T10:00:09;17.10;58.60
21387;DHT22;10854;45.922;6.716;2023-02-18T10:02:48;17.30;57.40
21387;DHT22;10854;45.922;6.716;2023-02-18T10:05:25;17.40;56.70
21387;DHT22;10854;45.922;6.716;2023-02-18T10:08:05;17.50;54.70
21387;DHT22;10854;45.922;6.716;2023-02-18T10:10:44;17.50;53.70
21387;DHT22;10854;45.922;6.716;2023-02-18T10:13:19;17.30;53.50
21387;DHT22;10854;45.922;6.716;2023-02-18T10:15:49;17.00;53.40
21387;DHT22;10854;45.922;6.716;2023-02-18T10:18:38;16.80;53.40
21387;DHT22;10854;45.922;6.716;2023-02-18T10:21:14;16.70;53.20
21387;DHT22;10854;45.922;6.716;2023-02-18T10:26:28;17.00;52.60
21387;DHT22;10854;45.922;6.716;2023-02-18T10:28:57;17.20;52.80
21387;DHT22;10854;45.922;6.716;2023-02-18T10:31:35;17.30;51.80
21387;DHT22;10854;45.922;6.716;2023-02-18T10:34:23;17.50;51.70
21387;DHT22;10854;45.922;6.716;2023-02-18T10:37:03;17.70;51.50
21387;DHT22;10854;45.922;6.716;2023-02-18T10:42:38;18.20;50.00
21387;DHT22;10854;45.922;6.716;2023-02-18T10:48:01;18.90;48.80
21387;DHT22;10854;45.922;6.716;2023-02-18T10:50:38;19.10;48.60
21387;DHT22;10854;45.922;6.716;2023-02-18T10:53:13;19.30;48.30
21387;DHT22;10854;45.922;6.716;2023-02-18T10:55:45;19.80;47.50
21387;DHT22;10854;45.922;6.716;2023-02-18T10:58:49;20.00;46.40
21387;DHT22;10854;45.922;6.716;2023-02-18T11:01:22;20.40;46.00
21387;DHT22;10854;45.922;6.716;2023-02-18T11:04:02;20.60;45.10
21387;DHT22;10854;45.922;6.716;2023-02-18T11:06:41;20.70;45.00
21387;DHT22;10854;45.922;6.716;2023-02-18T11:09:27;21.00;45.30
21387;DHT22;10854;45.922;6.716;2023-02-18T11:12:05;21.10;43.90
21387;DHT22;10854;45.922;6.716;2023-02-18T11:14:40;21.30;44.40
21387;DHT22;10854;45.922;6.716;2023-02-18T11:17:29;21.50;43.60
21387;DHT22;10854;45.922;6.716;2023-02-18T11:20:00;21.80;42.10
21387;DHT22;10854;45.922;6.716;2023-02-18T11:22:32;22.10;42.40
21387;DHT22;10854;45.922;6.716;2023-02-18T11:25:03;22.40;42.20
21387;DHT22;10854;45.922;6.716;2023-02-18T11:27:51;22.40;41.30
21387;DHT22;10854;45.922;6.716;2023-02-18T11:30:43;22.30;40.70
21387;DHT22;10854;45.922;6.716;2023-02-18T11:33:20;22.20;41.10
21387;DHT22;10854;45.922;6.716;2023-02-18T11:36:24;22.30;41.40
21387;DHT22;10854;45.922;6.716;2023-02-18T11:39:06;22.40;41.30
21387;DHT22;10854;45.922;6.716;2023-02-18T11:41:55;22.60;41.40
21387;DHT22;10854;45.922;6.716;2023-02-18T11:44:37;23.00;41.20
21387;DHT22;10854;45.922;6.716;2023-02-18T11:49:43;23.30;40.70
21387;DHT22;10854;45.922;6.716;2023-02-18T11:52:35;23.50;40.40
21387;DHT22;10854;45.922;6.716;2023-02-18T11:55:13;23.70;39.70
21387;DHT22;10854;45.922;6.716;2023-02-18T11:57:56;23.90;39.70
21387;DHT22;10854;45.922;6.716;2023-02-18T12:00:41;23.90;38.90
21387;DHT22;10854;45.922;6.716;2023-02-18T12:05:57;23.40;38.90
21387;DHT22;10854;45.922;6.716;2023-02-18T12:08:29;23.10;39.50
21387;DHT22;10854;45.922;6.716;2023-02-18T12:11:11;23.00;39.80
21387;DHT22;10854;45.922;6.716;2023-02-18T12:13:51;22.90;39.50
21387;DHT22;10854;45.922;6.716;2023-02-18T12:25:40;23.20;40.20
21387;DHT22;10854;45.922;6.716;2023-02-18T12:37:02;22.90;39.90
21387;DHT22;10854;45.922;6.716;2023-02-18T12:49:25;23.50;39.90
21387;DHT22;10854;45.922;6.716;2023-02-18T13:01:26;24.30;39.20
21387;DHT22;10854;45.922;6.716;2023-02-18T13:04:00;24.50;39.10
21387;DHT22;10854;45.922;6.716;2023-02-18T13:12:54;24.00;38.40
21387;DHT22;10854;45.922;6.716;2023-02-18T13:15:50;24.10;38.60
21387;DHT22;10854;45.922;6.716;2023-02-18T13:18:35;24.50;38.40
21387;DHT22;10854;45.922;6.716;2023-02-18T13:21:12;24.80;38.40
21387;DHT22;10854;45.922;6.716;2023-02-18T13:24:02;24.90;37.70
21387;DHT22;10854;45.922;6.716;2023-02-18T13:26:33;24.90;37.60
21387;DHT22;10854;45.922;6.716;2023-02-18T13:29:28;24.70;37.40
21387;DHT22;10854;45.922;6.716;2023-02-18T13:32:27;24.50;37.10
21387;DHT22;10854;45.922;6.716;2023-02-18T13:35:33;24.10;37.60
21387;DHT22;10854;45.922;6.716;2023-02-18T13:38:23;24.00;38.00
21387;DHT22;10854;45.922;6.716;2023-02-18T13:40:56;24.10;38.60
21387;DHT22;10854;45.922;6.716;2023-02-18T13:46:13;24.20;38.70
21387;DHT22;10854;45.922;6.716;2023-02-18T13:48:44;24.30;38.90
21387;DHT22;10854;45.922;6.716;2023-02-18T13:51:28;24.60;38.90
21387;DHT22;10854;45.922;6.716;2023-02-18T13:56:33;24.50;38.80
21387;DHT22;10854;45.922;6.716;2023-02-18T13:59:15;24.70;39.30
21387;DHT22;10854;45.922;6.716;2023-02-18T14:01:47;24.70;38.00
21387;DHT22;10854;45.922;6.716;2023-02-18T14:26:07;24.30;39.50
21387;DHT22;10854;45.922;6.716;2023-02-18T14:32:09;24.60;39.00
21387;DHT22;10854;45.922;6.716;2023-02-18T14:35:12;24.30;38.30
21387;DHT22;10854;45.922;6.716;2023-02-18T14:38:14;23.90;38.90
21387;DHT22;10854;45.922;6.716;2023-02-18T14:41:13;23.70;39.50
21387;DHT22;10854;45.922;6.716;2023-02-18T14:44:47;23.80;39.80
21387;DHT22;10854;45.922;6.716;2023-02-18T14:50:20;24.60;39.40
21387;DHT22;10854;45.922;6.716;2023-02-18T14:53:10;24.70;39.20
21387;DHT22;10854;45.922;6.716;2023-02-18T14:56:12;24.80;38.80
21387;DHT22;10854;45.922;6.716;2023-02-18T14:58:58;24.60;38.20
21387;DHT22;10854;45.922;6.716;2023-02-18T15:01:31;24.10;38.70
21387;DHT22;10854;45.922;6.716;2023-02-18T15:04:04;24.00;38.80
21387;DHT22;10854;45.922;6.716;2023-02-18T15:06:35;23.90;38.60
21387;DHT22;10854;45.922;6.716;2023-02-18T15:09:19;23.80;38.50
21387;DHT22;10854;45.922;6.716;2023-02-18T15:12:01;23.70;38.70
21387;DHT22;10854;45.922;6.716;2023-02-18T15:14:38;23.80;39.00
21387;DHT22;10854;45.922;6.716;2023-02-18T15:17:23;23.70;38.90
21387;DHT22;10854;45.922;6.716;2023-02-18T15:19:58;23.90;39.20
21387;DHT22;10854;45.922;6.716;2023-02-18T15:22:38;24.00;38.90
21387;DHT22;10854;45.922;6.716;2023-02-18T15:25:10;23.70;38.90
21387;DHT22;10854;45.922;6.716;2023-02-18T15:27:42;23.60;39.20
21387;DHT22;10854;45.922;6.716;2023-02-18T15:30:20;23.50;39.40
21387;DHT22;10854;45.922;6.716;2023-02-18T15:32:59;23.40;39.50
21387;DHT22;10854;45.922;6.716;2023-02-18T15:35:33;23.40;39.80
21387;DHT22;10854;45.922;6.716;2023-02-18T15:38:15;23.30;39.90
21387;DHT22;10854;45.922;6.716;2023-02-18T15:41:09;23.30;40.20
21387;DHT22;10854;45.922;6.716;2023-02-18T15:44:01;23.30;40.20
21387;DHT22;10854;45.922;6.716;2023-02-18T15:46:33;23.30;40.20
21387;DHT22;10854;45.922;6.716;2023-02-18T15:49:09;23.10;40.20
21387;DHT22;10854;45.922;6.716;2023-02-18T15:51:42;23.00;40.40
21387;DHT22;10854;45.922;6.716;2023-02-18T15:54:16;22.80;40.70
21387;DHT22;10854;45.922;6.716;2023-02-18T15:56:49;22.50;41.20
21387;DHT22;10854;45.922;6.716;2023-02-18T15:59:29;22.20;41.70
21387;DHT22;10854;45.922;6.716;2023-02-18T16:02:19;21.80;42.20
21387;DHT22;10854;45.922;6.716;2023-02-18T16:05:01;21.10;42.90
21387;DHT22;10854;45.922;6.716;2023-02-18T16:07:47;20.10;43.50
21387;DHT22;10854;45.922;6.716;2023-02-18T16:10:23;19.20;44.50
21387;DHT22;10854;45.922;6.716;2023-02-18T16:12:54;18.30;45.50
21387;DHT22;10854;45.922;6.716;2023-02-18T16:15:36;17.70;46.40
21387;DHT22;10854;45.922;6.716;2023-02-18T16:18:05;17.10;47.30
21387;DHT22;10854;45.922;6.716;2023-02-18T16:20:36;16.60;48.00
21387;DHT22;10854;45.922;6.716;2023-02-18T16:23:13;16.30;49.30
21387;DHT22;10854;45.922;6.716;2023-02-18T16:25:43;16.00;49.40
21387;DHT22;10854;45.922;6.716;2023-02-18T16:28:27;15.70;49.80
21387;DHT22;10854;45.922;6.716;2023-02-18T16:31:00;15.40;50.30
21387;DHT22;10854;45.922;6.716;2023-02-18T16:33:29;15.00;50.70
21387;DHT22;10854;45.922;6.716;2023-02-18T16:35:57;14.70;51.20
21387;DHT22;10854;45.922;6.716;2023-02-18T16:38:32;14.40;51.70
21387;DHT22;10854;45.922;6.716;2023-02-18T16:41:02;14.20;52.20
21387;DHT22;10854;45.922;6.716;2023-02-18T16:43:31;13.90;52.60
21387;DHT22;10854;45.922;6.716;2023-02-18T16:46:12;13.70;53.30
21387;DHT22;10854;45.922;6.716;2023-02-18T16:48:44;13.40;53.70
21387;DHT22;10854;45.922;6.716;2023-02-18T16:51:31;13.20;54.20
21387;DHT22;10854;45.922;6.716;2023-02-18T16:54:02;13.00;54.80
21387;DHT22;10854;45.922;6.716;2023-02-18T16:56:32;12.80;54.90
21387;DHT22;10854;45.922;6.716;2023-02-18T16:59:03;12.60;55.30
21387;DHT22;10854;45.922;6.716;2023-02-18T17:01:36;12.40;56.00
21387;DHT22;10854;45.922;6.716;2023-02-18T17:04:05;12.20;56.40
21387;DHT22;10854;45.922;6.716;2023-02-18T17:06:34;12.00;57.00
21387;DHT22;10854;45.922;6.716;2023-02-18T17:09:16;11.80;57.60
21387;DHT22;10854;45.922;6.716;2023-02-18T17:11:53;11.60;58.40
21387;DHT22;10854;45.922;6.716;2023-02-18T17:14:22;11.30;58.80
21387;DHT22;10854;45.922;6.716;2023-02-18T17:16:52;11.20;59.00
21387;DHT22;10854;45.922;6.716;2023-02-18T17:19:21;11.00;59.40
21387;DHT22;10854;45.922;6.716;2023-02-18T17:21:50;10.80;59.70
21387;DHT22;10854;45.922;6.716;2023-02-18T17:24:18;10.60;60.40
21387;DHT22;10854;45.922;6.716;2023-02-18T17:26:47;10.40;61.20
21387;DHT22;10854;45.922;6.716;2023-02-18T17:29:15;10.20;61.70
21387;DHT22;10854;45.922;6.716;2023-02-18T17:31:45;10.00;62.30
21387;DHT22;10854;45.922;6.716;2023-02-18T17:34:20;9.80;64.30
21387;DHT22;10854;45.922;6.716;2023-02-18T17:36:50;9.60;64.80
21387;DHT22;10854;45.922;6.716;2023-02-18T17:39:19;9.40;65.30
21387;DHT22;10854;45.922;6.716;2023-02-18T17:41:48;9.20;66.10
21387;DHT22;10854;45.922;6.716;2023-02-18T17:44:19;9.10;66.80
21387;DHT22;10854;45.922;6.716;2023-02-18T17:46:48;8.90;67.30
21387;DHT22;10854;45.922;6.716;2023-02-18T17:49:17;8.80;68.00
21387;DHT22;10854;45.922;6.716;2023-02-18T17:51:45;8.60;68.60
21387;DHT22;10854;45.922;6.716;2023-02-18T17:54:16;8.60;69.30
21387;DHT22;10854;45.922;6.716;2023-02-18T17:56:45;8.40;70.10
21387;DHT22;10854;45.922;6.716;2023-02-18T17:59:14;8.40;70.50
21387;DHT22;10854;45.922;6.716;2023-02-18T18:01:44;8.30;70.80
21387;DHT22;10854;45.922;6.716;2023-02-18T18:04:15;8.10;71.00
21387;DHT22;10854;45.922;6.716;2023-02-18T18:06:44;8.00;71.40
21387;DHT22;10854;45.922;6.716;2023-02-18T18:09:14;7.90;72.00
21387;DHT22;10854;45.922;6.716;2023-02-18T18:11:42;7.80;72.60